createdAt,value
2019-03-18T00:00:56.106Z,3.55
2019-03-18T00:03:25.643Z,3.50
2019-03-18T00:05:55.515Z,3.44
2019-03-18T00:08:24.751Z,3.51
2019-03-18T00:10:54.211Z,3.57
2019-03-18T00:13:23.764Z,3.34
2019-03-18T00:15:53.248Z,3.35
2019-03-18T00:18:22.744Z,3.33
2019-03-18T00:20:52.361Z,3.35
2019-03-18T00:23:22.056Z,3.40
2019-03-18T00:25:51.580Z,3.48
2019-03-18T00:28:21.162Z,3.43
2019-03-18T00:30:50.694Z,3.34
2019-03-18T00:33:20.237Z,3.35
2019-03-18T00:35:49.799Z,3.19
2019-03-18T00:38:19.470Z,3.26
2019-03-18T00:40:49.068Z,3.26
2019-03-18T00:43:18.629Z,3.23
2019-03-18T00:45:48.156Z,3.20
2019-03-18T00:48:17.692Z,3.21
2019-03-18T00:50:47.148Z,3.05
2019-03-18T00:53:16.599Z,3.22
2019-03-18T00:55:46.086Z,3.19
2019-03-18T00:58:15.522Z,3.10
2019-03-18T01:00:44.987Z,3.10
2019-03-18T01:03:14.745Z,3.36
2019-03-18T01:05:44.285Z,3.21
2019-03-18T01:08:13.971Z,3.16
2019-03-18T01:10:43.460Z,3.22
2019-03-18T01:13:13.063Z,3.18
2019-03-18T01:15:42.671Z,3.00
2019-03-18T01:18:12.564Z,2.92
2019-03-18T01:20:42.095Z,2.94
2019-03-18T01:23:12.216Z,2.90
2019-03-18T01:25:41.822Z,2.88
2019-03-18T01:28:11.950Z,2.90
2019-03-18T01:30:41.517Z,2.88
2019-03-18T01:33:10.721Z,2.84
2019-03-18T01:35:40.216Z,2.76
2019-03-18T01:38:09.756Z,2.81
2019-03-18T01:40:39.293Z,2.93
2019-03-18T01:43:08.847Z,3.01
2019-03-18T01:45:40.869Z,3.06
2019-03-18T01:48:10.721Z,3.02
2019-03-18T01:50:40.329Z,2.88
2019-03-18T01:53:09.957Z,2.95
2019-03-18T01:55:39.561Z,3.04
2019-03-18T01:58:09.148Z,3.06
2019-03-18T02:00:38.819Z,2.93
2019-03-18T02:03:08.278Z,2.89
2019-03-18T02:05:37.735Z,3.04
2019-03-18T02:08:07.312Z,3.14
2019-03-18T02:10:36.797Z,3.04
2019-03-18T02:13:06.137Z,2.96
2019-03-18T02:15:35.624Z,2.94
2019-03-18T02:18:05.145Z,2.93
2019-03-18T02:20:34.720Z,3.03
2019-03-18T02:23:04.295Z,2.97
2019-03-18T02:25:33.775Z,3.00
2019-03-18T02:28:03.229Z,2.98
2019-03-18T02:30:32.845Z,2.98
2019-03-18T02:33:02.320Z,2.93
2019-03-18T02:35:31.895Z,3.03
2019-03-18T02:38:01.490Z,2.88
2019-03-18T02:40:30.905Z,2.98
2019-03-18T02:43:00.581Z,2.85
2019-03-18T02:45:30.181Z,2.88
2019-03-18T02:47:59.513Z,2.96
2019-03-18T02:50:29.064Z,3.07
2019-03-18T02:52:58.602Z,3.05
2019-03-18T02:55:28.086Z,3.08
2019-03-18T02:57:57.418Z,3.12
2019-03-18T03:00:27.142Z,3.24
2019-03-18T03:02:56.638Z,3.37
2019-03-18T03:05:26.102Z,3.45
2019-03-18T03:07:55.587Z,3.56
2019-03-18T03:10:25.122Z,3.55
2019-03-18T03:12:54.745Z,3.60
2019-03-18T03:15:24.272Z,3.61
2019-03-18T03:17:53.753Z,3.65
2019-03-18T03:20:23.298Z,3.64
2019-03-18T03:22:52.842Z,3.51
2019-03-18T03:25:24.898Z,3.44
2019-03-18T03:27:53.344Z,3.44
2019-03-18T03:30:22.817Z,3.36
2019-03-18T03:32:52.442Z,3.43
2019-03-18T03:35:21.954Z,3.41
2019-03-18T03:37:51.623Z,3.41
2019-03-18T03:40:21.197Z,3.44
2019-03-18T03:42:50.550Z,3.47
2019-03-18T03:48:29.523Z,3.47
2019-03-18T03:50:59.110Z,3.64
2019-03-18T03:53:30.904Z,3.65
2019-03-18T03:55:59.882Z,3.65
2019-03-18T03:58:29.522Z,3.70
2019-03-18T04:00:59.521Z,3.75
2019-03-18T04:03:38.438Z,3.74
2019-03-18T04:06:00.610Z,3.76
2019-03-18T04:08:30.232Z,3.82
2019-03-18T04:10:59.781Z,3.92
2019-03-18T04:13:29.267Z,3.83
2019-03-18T04:16:00.383Z,3.75
2019-03-18T04:18:29.976Z,3.89
2019-03-18T04:20:59.279Z,3.83
2019-03-18T04:23:28.817Z,3.86
2019-03-18T04:25:58.252Z,4.00
2019-03-18T04:28:27.698Z,4.08
2019-03-18T04:30:57.197Z,3.88
2019-03-18T04:33:26.642Z,3.94
2019-03-18T04:35:56.223Z,4.07
2019-03-18T04:38:25.658Z,4.04
2019-03-18T04:40:55.146Z,4.05
2019-03-18T04:43:24.793Z,4.13
2019-03-18T04:45:54.193Z,4.12
2019-03-18T04:48:26.004Z,3.95
2019-03-18T04:50:55.518Z,3.98
2019-03-18T04:53:24.969Z,3.87
2019-03-18T04:55:54.710Z,3.83
2019-03-18T04:58:24.173Z,3.95
2019-03-18T05:00:53.651Z,4.09
2019-03-18T05:03:22.843Z,4.08
2019-03-18T05:05:52.163Z,4.04
2019-03-18T05:08:21.704Z,3.99
2019-03-18T05:10:51.243Z,4.11
2019-03-18T05:13:20.882Z,4.33
2019-03-18T05:15:50.405Z,4.20
2019-03-18T05:18:19.944Z,4.12
2019-03-18T05:20:49.498Z,4.19
2019-03-18T05:23:18.772Z,4.31
2019-03-18T05:25:48.328Z,4.26
2019-03-18T05:28:17.789Z,4.15
2019-03-18T05:30:47.265Z,4.19
2019-03-18T05:33:16.814Z,4.24
2019-03-18T05:35:46.565Z,4.25
2019-03-18T05:38:16.086Z,4.30
2019-03-18T05:40:45.602Z,4.34
2019-03-18T05:43:15.099Z,4.21
2019-03-18T05:45:44.683Z,4.18
2019-03-18T05:48:14.561Z,4.14
2019-03-18T05:50:45.438Z,4.06
2019-03-18T05:53:15.453Z,4.05
2019-03-18T05:55:45.200Z,4.12
2019-03-18T05:58:14.674Z,4.01
2019-03-18T06:00:45.109Z,4.14
2019-03-18T06:03:14.669Z,4.42
2019-03-18T06:05:44.271Z,4.52
2019-03-18T06:08:13.464Z,4.85
2019-03-18T06:10:42.662Z,5.06
2019-03-18T06:13:12.297Z,5.19
2019-03-18T06:15:41.836Z,5.61
2019-03-18T06:18:11.542Z,6.09
2019-03-18T06:20:42.164Z,6.89
2019-03-18T06:23:11.416Z,6.56
2019-03-18T06:25:41.035Z,6.52
2019-03-18T06:28:10.720Z,6.34
2019-03-18T06:30:40.259Z,6.76
2019-03-18T06:33:10.412Z,6.80
2019-03-18T06:35:39.934Z,6.85
2019-03-18T06:38:10.213Z,6.33
2019-03-18T06:40:39.447Z,6.22
2019-03-18T06:43:09.390Z,5.77
2019-03-18T06:45:38.905Z,5.60
2019-03-18T06:48:09.353Z,5.65
2019-03-18T06:50:39.696Z,5.71
2019-03-18T06:53:09.678Z,5.70
2019-03-18T06:55:39.135Z,5.66
2019-03-18T06:58:08.663Z,5.61
2019-03-18T07:00:38.306Z,5.65
2019-03-18T07:03:08.114Z,5.64
2019-03-18T07:05:37.540Z,5.35
2019-03-18T07:08:07.081Z,5.36
2019-03-18T07:10:36.899Z,5.45
2019-03-18T07:13:06.182Z,5.66
2019-03-18T07:15:35.652Z,5.84
2019-03-18T07:18:17.565Z,6.14
2019-03-18T07:20:36.580Z,6.15
2019-03-18T07:23:06.085Z,6.01
2019-03-18T07:25:35.673Z,6.01
2019-03-18T07:28:04.860Z,6.06
2019-03-18T07:30:34.403Z,6.14
2019-03-18T07:33:03.989Z,6.24
2019-03-18T07:35:33.477Z,6.50
2019-03-18T07:38:02.998Z,6.60
2019-03-18T07:40:32.542Z,7.00
2019-03-18T07:43:02.067Z,6.81
2019-03-18T07:45:31.540Z,6.84
2019-03-18T07:48:01.173Z,6.51
2019-03-18T07:50:30.979Z,6.38
2019-03-18T07:53:00.569Z,6.47
2019-03-18T07:55:30.134Z,6.44
2019-03-18T07:57:59.762Z,6.42
2019-03-18T08:00:29.390Z,6.15
2019-03-18T08:02:59.201Z,6.27
2019-03-18T08:05:28.691Z,6.16
2019-03-18T08:07:58.222Z,6.31
2019-03-18T08:10:27.847Z,6.21
2019-03-18T08:12:57.324Z,6.06
2019-03-18T08:15:26.841Z,6.37
2019-03-18T08:17:56.123Z,6.55
2019-03-18T08:20:25.847Z,6.64
2019-03-18T08:22:55.308Z,6.66
2019-03-18T08:25:24.532Z,6.83
2019-03-18T08:27:54.056Z,6.91
2019-03-18T08:30:23.605Z,6.90
2019-03-18T08:32:53.036Z,7.03
2019-03-18T08:35:22.532Z,7.20
2019-03-18T08:37:54.791Z,7.04
2019-03-18T08:40:23.347Z,6.78
2019-03-18T08:42:52.907Z,6.69
2019-03-18T08:45:22.487Z,6.79
2019-03-18T08:47:51.994Z,6.88
2019-03-18T08:50:22.349Z,7.05
2019-03-18T08:52:51.907Z,6.90
2019-03-18T08:55:21.460Z,6.92
2019-03-18T08:57:51.088Z,7.21
2019-03-18T09:00:20.894Z,7.28
2019-03-18T09:02:50.619Z,7.34
2019-03-18T09:05:20.121Z,7.13
2019-03-18T09:07:49.687Z,7.11
2019-03-18T09:10:19.404Z,7.25
2019-03-18T09:12:48.949Z,7.37
2019-03-18T09:15:18.470Z,7.22
2019-03-18T09:17:47.656Z,7.20
2019-03-18T09:20:18.153Z,7.52
2019-03-18T09:22:47.770Z,7.38
2019-03-18T09:25:17.367Z,7.55
2019-03-18T09:27:46.947Z,7.59
2019-03-18T09:30:19.307Z,7.60
2019-03-18T09:32:48.820Z,7.57
2019-03-18T09:35:18.444Z,7.65
2019-03-18T09:37:47.977Z,7.59
2019-03-18T09:40:17.849Z,7.73
2019-03-18T09:42:47.406Z,7.79
2019-03-18T09:45:17.988Z,7.70
2019-03-18T09:47:47.589Z,7.70
2019-03-18T09:50:17.276Z,7.63
2019-03-18T09:52:46.876Z,7.69
2019-03-18T09:55:16.514Z,7.54
2019-03-18T09:57:46.087Z,7.28
2019-03-18T10:00:16.813Z,7.26
2019-03-18T10:02:46.253Z,7.44
2019-03-18T10:05:15.738Z,7.52
2019-03-18T10:07:45.341Z,7.36
2019-03-18T10:10:15.131Z,7.34
2019-03-18T10:12:44.594Z,7.63
2019-03-18T10:15:17.482Z,7.97
2019-03-18T10:17:46.990Z,8.28
2019-03-18T10:20:16.536Z,8.32
2019-03-18T10:22:46.936Z,8.59
2019-03-18T10:25:16.418Z,9.25
2019-03-18T10:27:45.989Z,9.54
2019-03-18T10:30:16.213Z,9.65
2019-03-18T10:32:45.760Z,9.78
2019-03-18T10:35:15.382Z,9.66
2019-03-18T10:37:44.920Z,9.64
2019-03-18T10:40:14.730Z,10.17
2019-03-18T10:42:44.303Z,10.17
2019-03-18T10:45:14.596Z,10.06
2019-03-18T10:47:44.223Z,10.19
2019-03-18T10:50:15.793Z,10.11
2019-03-18T10:52:45.395Z,10.06
2019-03-18T10:55:14.938Z,10.23
2019-03-18T10:57:44.473Z,10.59
2019-03-18T11:00:17.562Z,10.65
2019-03-18T11:02:47.739Z,10.77
2019-03-18T11:05:18.014Z,10.80
2019-03-18T11:07:51.430Z,10.85
2019-03-18T11:10:20.207Z,10.63
2019-03-18T11:12:50.517Z,10.50
2019-03-18T11:15:23.562Z,10.12
2019-03-18T11:17:53.955Z,10.35
2019-03-18T11:20:24.230Z,10.88
2019-03-18T11:22:56.104Z,11.04
2019-03-18T11:25:26.198Z,11.09
2019-03-18T11:27:56.412Z,11.39
2019-03-18T11:30:25.841Z,10.90
2019-03-18T11:32:55.394Z,10.70
2019-03-18T11:35:24.987Z,10.34
2019-03-18T11:37:54.528Z,10.00
2019-03-18T11:40:24.114Z,9.11
2019-03-18T11:42:53.621Z,8.43
2019-03-18T11:45:23.071Z,7.71
2019-03-18T11:47:52.685Z,7.06
2019-03-18T11:50:22.004Z,6.64
2019-03-18T11:52:51.649Z,6.58
2019-03-18T11:55:24.240Z,6.76
2019-03-18T11:57:53.845Z,6.88
2019-03-18T12:00:24.531Z,6.91
2019-03-18T12:02:54.154Z,7.17
2019-03-18T12:05:25.739Z,7.19
2019-03-18T12:07:55.314Z,7.13
2019-03-18T12:10:25.893Z,7.33
2019-03-18T12:12:55.999Z,7.63
2019-03-18T12:15:26.496Z,7.96
2019-03-18T12:17:56.048Z,7.91
2019-03-18T12:20:25.891Z,8.37
2019-03-18T12:22:55.690Z,8.43
2019-03-18T12:25:25.284Z,8.87
2019-03-18T12:27:54.481Z,8.57
2019-03-18T12:30:25.076Z,8.70
2019-03-18T12:32:54.614Z,8.87
2019-03-18T12:35:24.367Z,8.72
2019-03-18T12:37:54.032Z,8.63
2019-03-18T12:40:23.673Z,8.80
2019-03-18T12:42:53.180Z,8.68
2019-03-18T12:45:23.186Z,8.42
2019-03-18T12:47:52.594Z,8.99
2019-03-18T12:50:38.839Z,9.40
2019-03-18T12:52:54.613Z,9.46
2019-03-18T12:55:23.961Z,9.77
2019-03-18T12:57:53.572Z,10.05
2019-03-18T13:00:25.795Z,10.05
2019-03-18T13:02:55.334Z,9.99
2019-03-18T13:05:25.050Z,10.02
2019-03-18T13:07:54.551Z,9.89
2019-03-18T13:10:24.260Z,10.14
2019-03-18T13:12:54.049Z,10.28
2019-03-18T13:15:23.685Z,10.24
2019-03-18T13:17:53.294Z,10.47
2019-03-18T13:20:23.539Z,10.68
2019-03-18T13:22:54.242Z,11.05
2019-03-18T13:25:23.995Z,11.43
2019-03-18T13:27:53.521Z,11.49
2019-03-18T13:30:24.437Z,11.37
2019-03-18T13:32:53.966Z,11.53
2019-03-18T13:35:23.571Z,11.51
2019-03-18T13:37:53.041Z,11.08
2019-03-18T13:40:22.744Z,10.37
2019-03-18T13:42:52.305Z,9.56
2019-03-18T13:45:22.888Z,9.22
2019-03-18T13:47:52.404Z,9.42
2019-03-18T13:50:22.601Z,9.44
2019-03-18T13:52:52.137Z,9.50
2019-03-18T13:55:21.699Z,9.45
2019-03-18T13:57:51.303Z,9.77
2019-03-18T14:00:21.690Z,9.62
2019-03-18T14:02:51.285Z,9.61
2019-03-18T14:05:20.945Z,9.73
2019-03-18T14:08:00.063Z,9.93
2019-03-18T14:10:23.743Z,10.09
2019-03-18T14:12:53.130Z,10.02
2019-03-18T14:15:24.680Z,10.43
2019-03-18T14:17:54.311Z,10.71
2019-03-18T14:20:25.852Z,10.36
2019-03-18T14:22:55.431Z,10.28
2019-03-18T14:25:25.072Z,10.53
2019-03-18T14:27:54.666Z,10.65
2019-03-18T14:30:24.333Z,10.59
2019-03-18T14:32:53.879Z,10.58
2019-03-18T14:35:23.488Z,10.42
2019-03-18T14:37:53.023Z,10.09
2019-03-18T14:40:23.938Z,9.94
2019-03-18T14:42:53.547Z,9.86
2019-03-18T14:45:23.853Z,10.03
2019-03-18T14:47:53.417Z,9.97
2019-03-18T14:50:22.944Z,10.02
2019-03-18T14:52:52.554Z,9.97
2019-03-18T14:55:22.159Z,10.05
2019-03-18T14:57:51.890Z,10.14
2019-03-18T15:00:22.681Z,10.09
2019-03-18T15:02:52.272Z,9.87
2019-03-18T15:05:21.841Z,10.03
2019-03-18T15:07:51.992Z,9.95
2019-03-18T15:10:23.735Z,10.03
2019-03-18T15:12:53.298Z,10.20
2019-03-18T15:15:23.008Z,10.24
2019-03-18T15:17:52.637Z,10.17
2019-03-18T15:20:26.576Z,10.27
2019-03-18T15:22:55.498Z,10.27
2019-03-18T15:25:26.696Z,10.37
2019-03-18T15:27:57.154Z,10.54
2019-03-18T15:30:26.690Z,10.47
2019-03-18T15:32:56.310Z,10.32
2019-03-18T15:35:25.761Z,10.24
2019-03-18T15:37:55.308Z,9.68
2019-03-18T15:40:27.177Z,8.97
2019-03-18T15:42:56.786Z,8.67
2019-03-18T15:45:26.362Z,8.53
2019-03-18T15:47:55.902Z,8.39
2019-03-18T15:50:25.303Z,8.14
2019-03-18T15:52:54.903Z,8.27
2019-03-18T15:55:24.783Z,8.31
2019-03-18T15:57:54.436Z,8.28
2019-03-18T16:00:25.948Z,8.16
2019-03-18T16:02:55.505Z,8.28
2019-03-18T16:05:25.021Z,8.14
2019-03-18T16:07:54.494Z,8.17
2019-03-18T16:10:24.015Z,8.25
2019-03-18T16:12:53.583Z,8.39
2019-03-18T16:15:23.233Z,8.42
2019-03-18T16:17:52.713Z,8.57
2019-03-18T16:20:23.444Z,8.66
2019-03-18T16:22:53.030Z,8.62
2019-03-18T16:25:22.563Z,8.48
2019-03-18T16:27:52.148Z,8.45
2019-03-18T16:30:22.451Z,8.53
2019-03-18T16:32:51.724Z,8.63
2019-03-18T16:35:21.340Z,8.73
2019-03-18T16:37:51.629Z,8.67
2019-03-18T16:40:23.332Z,8.86
2019-03-18T16:42:53.023Z,8.98
2019-03-18T16:45:22.590Z,9.16
2019-03-18T16:47:52.283Z,9.16
2019-03-18T16:50:25.105Z,9.09
2019-03-18T16:52:54.695Z,9.12
2019-03-18T16:55:24.194Z,9.14
2019-03-18T16:57:53.878Z,9.01
2019-03-18T17:00:25.795Z,8.85
2019-03-18T17:02:55.224Z,8.74
2019-03-18T17:05:24.709Z,8.60
2019-03-18T17:07:54.699Z,8.45
2019-03-18T17:10:24.322Z,8.38
2019-03-18T17:12:53.880Z,8.28
2019-03-18T17:15:23.445Z,8.13
2019-03-18T17:17:52.964Z,8.19
2019-03-18T17:20:22.451Z,8.08
2019-03-18T17:22:52.079Z,7.98
2019-03-18T17:25:24.661Z,7.92
2019-03-18T17:27:54.117Z,7.86
2019-03-18T17:30:26.471Z,7.83
2019-03-18T17:32:54.950Z,7.79
2019-03-18T17:35:24.708Z,7.74
2019-03-18T17:37:54.202Z,7.57
2019-03-18T17:40:23.648Z,7.52
2019-03-18T17:42:52.933Z,7.50
2019-03-18T17:45:23.189Z,7.57
2019-03-18T17:47:52.719Z,7.53
2019-03-18T17:50:24.556Z,7.51
2019-03-18T17:53:02.368Z,7.33
2019-03-18T17:55:25.293Z,7.47
2019-03-18T17:57:54.593Z,7.37
2019-03-18T18:00:24.024Z,7.34
2019-03-18T18:02:53.393Z,7.36
2019-03-18T18:05:22.989Z,7.33
2019-03-18T18:07:52.624Z,7.23
2019-03-18T18:10:22.075Z,7.27
2019-03-18T18:12:51.688Z,7.20
2019-03-18T18:15:21.294Z,7.27
2019-03-18T18:17:50.584Z,7.19
2019-03-18T18:20:20.105Z,7.21
2019-03-18T18:22:49.084Z,7.15
2019-03-18T18:25:18.602Z,7.14
2019-03-18T18:27:48.235Z,7.04
2019-03-18T18:30:18.656Z,7.01
2019-03-18T18:32:48.263Z,6.99
2019-03-18T18:35:17.849Z,6.92
2019-03-18T18:37:47.318Z,6.91
2019-03-18T18:40:19.275Z,6.75
2019-03-18T18:42:48.775Z,6.72
2019-03-18T18:45:21.078Z,6.63
2019-03-18T18:47:49.709Z,6.49
2019-03-18T18:50:19.411Z,6.59
2019-03-18T18:52:48.962Z,6.50
2019-03-18T18:55:18.833Z,6.46
2019-03-18T18:57:48.464Z,6.44
2019-03-18T19:00:19.141Z,6.48
2019-03-18T19:02:48.761Z,6.33
2019-03-18T19:05:19.650Z,6.37
2019-03-18T19:07:49.268Z,6.42
2019-03-18T19:10:22.373Z,6.45
2019-03-18T19:12:54.063Z,6.49
2019-03-18T19:15:26.097Z,6.37
2019-03-18T19:17:55.583Z,6.45
2019-03-18T19:20:25.220Z,6.48
2019-03-18T19:22:54.661Z,6.53
2019-03-18T19:25:24.308Z,6.38
2019-03-18T19:27:53.837Z,6.40
2019-03-18T19:30:24.206Z,6.25
2019-03-18T19:32:53.792Z,6.20
2019-03-18T19:35:23.317Z,6.13
2019-03-18T19:37:53.038Z,6.06
2019-03-18T19:40:23.463Z,6.12
2019-03-18T19:42:53.339Z,5.99
2019-03-18T19:45:22.931Z,6.02
2019-03-18T19:47:53.438Z,6.04
2019-03-18T19:50:25.664Z,6.01
2019-03-18T19:52:55.293Z,6.09
2019-03-18T19:55:24.853Z,5.96
2019-03-18T19:57:54.450Z,5.91
2019-03-18T20:00:24.260Z,6.04
2019-03-18T20:02:53.941Z,6.02
2019-03-18T20:05:23.499Z,6.00
2019-03-18T20:07:53.104Z,5.93
2019-03-18T20:10:22.931Z,5.91
2019-03-18T20:12:52.524Z,5.90
2019-03-18T20:15:22.263Z,5.86
2019-03-18T20:17:51.914Z,5.92
2019-03-18T20:20:22.719Z,5.93
2019-03-18T20:22:52.295Z,5.95
2019-03-18T20:25:22.581Z,5.98
2019-03-18T20:27:52.186Z,5.98
2019-03-18T20:30:22.501Z,6.00
2019-03-18T20:32:51.953Z,6.03
2019-03-18T20:35:23.232Z,6.11
2019-03-18T20:37:52.838Z,6.10
2019-03-18T20:40:22.455Z,5.98
2019-03-18T20:42:53.749Z,6.09
2019-03-18T20:45:25.547Z,5.99
2019-03-18T20:47:55.229Z,6.01
2019-03-18T20:50:25.354Z,6.03
2019-03-18T20:52:54.385Z,6.05
2019-03-18T20:55:24.166Z,6.15
2019-03-18T20:57:53.839Z,6.11
2019-03-18T21:00:24.140Z,6.09
2019-03-18T21:03:14.499Z,6.02
2019-03-18T21:05:43.957Z,5.98
2019-03-18T21:08:13.867Z,5.86
2019-03-18T21:10:43.322Z,5.77
2019-03-18T21:13:13.043Z,5.71
2019-03-18T21:15:42.666Z,5.72
2019-03-18T21:18:13.072Z,5.76
2019-03-18T21:20:42.869Z,5.84
2019-03-18T21:23:12.852Z,5.79
2019-03-18T21:25:42.259Z,5.84
2019-03-18T21:28:12.396Z,5.79
2019-03-18T21:30:41.901Z,5.77
2019-03-18T21:33:12.120Z,5.70
2019-03-18T21:35:41.787Z,5.63
2019-03-18T21:38:11.514Z,5.61
2019-03-18T21:40:41.190Z,5.59
2019-03-18T21:43:10.755Z,5.72
2019-03-18T21:45:40.406Z,5.71
2019-03-18T21:48:10.462Z,5.73
2019-03-18T21:50:39.987Z,5.67
2019-03-18T21:53:09.634Z,5.60
2019-03-18T21:55:39.097Z,5.52
2019-03-18T21:58:08.443Z,5.53
2019-03-18T22:03:47.073Z,5.60
2019-03-18T22:06:16.410Z,5.74
2019-03-18T22:08:45.954Z,5.76
2019-03-18T22:11:15.400Z,5.77
2019-03-18T22:13:44.892Z,5.77
2019-03-18T22:16:14.402Z,5.68
2019-03-18T22:18:43.865Z,5.69
2019-03-18T22:21:13.582Z,5.62
2019-03-18T22:23:43.037Z,5.61
2019-03-18T22:26:13.199Z,5.64
2019-03-18T22:28:42.765Z,5.56
2019-03-18T22:31:12.782Z,5.41
2019-03-18T22:33:42.391Z,5.24
2019-03-18T22:36:12.213Z,5.17
2019-03-18T22:38:43.457Z,5.07
2019-03-18T22:41:14.379Z,5.08
2019-03-18T22:43:43.813Z,4.97
2019-03-18T22:46:13.533Z,4.91
2019-03-18T22:48:43.093Z,4.97
2019-03-18T22:51:12.720Z,4.86
2019-03-18T22:53:42.369Z,4.83
2019-03-18T22:56:12.174Z,4.68
2019-03-18T22:58:41.690Z,4.64
2019-03-18T23:01:13.078Z,4.60
2019-03-18T23:03:42.706Z,4.56
2019-03-18T23:06:12.241Z,4.50
2019-03-18T23:08:41.759Z,4.44
2019-03-18T23:11:11.828Z,4.40
2019-03-18T23:17:15.783Z,4.32
2019-03-18T23:19:45.336Z,4.30
2019-03-18T23:22:14.918Z,4.31
2019-03-18T23:24:44.163Z,4.24
2019-03-18T23:27:14.502Z,4.25
2019-03-18T23:29:44.029Z,4.24
2019-03-18T23:32:13.573Z,4.19
2019-03-18T23:34:43.026Z,4.11
2019-03-18T23:37:12.773Z,4.13
2019-03-18T23:39:42.274Z,4.04
2019-03-18T23:42:12.291Z,4.07
2019-03-18T23:44:41.899Z,4.01
2019-03-18T23:47:11.735Z,4.04
2019-03-18T23:49:41.293Z,3.99
2019-03-18T23:52:11.417Z,3.97
2019-03-18T23:54:41.030Z,3.99
2019-03-18T23:57:10.568Z,4.03
2019-03-18T23:59:40.144Z,4.12
